Time;durP1;ratioP1;P1;durP2;ratioP2;P2;SDS_P1;SDS_P2;PMS_P1;PMS_P2;Temp;Humidity;BMP_temperature;BMP_pressure;BME280_temperature;BME280_humidity;BME280_pressure;Samples;Min_cycle;Max_cycle;Signal;HPM_P1;HPM_P2
2022/10/15 00:02:37;;;;;;;5.17;3.95;;;17.20;99.90;;;;;;1930384;72;22280;-81
2022/10/15 00:05:28;;;;;;;10.38;4.10;;;17.10;99.90;;;;;;1884391;75;21114;-80
2022/10/15 00:08:19;;;;;;;6.72;4.83;;;17.10;99.90;;;;;;1884639;75;21620;-80
2022/10/15 00:13:49;;;;;;;8.13;3.98;;;16.90;99.90;;;;;;1952965;72;22197;-80
2022/10/15 00:16:40;;;;;;;7.55;3.87;;;16.90;99.90;;;;;;1907757;74;21060;-80
2022/10/15 00:19:32;;;;;;;6.70;4.08;;;16.80;99.90;;;;;;1893739;75;21096;-81
2022/10/15 00:22:23;;;;;;;9.78;4.25;;;16.80;99.90;;;;;;1888254;75;21063;-80
2022/10/15 00:25:15;;;;;;;6.85;4.05;;;16.90;99.90;;;;;;1884543;75;21122;-80
2022/10/15 00:28:06;;;;;;;9.48;5.53;;;16.90;99.90;;;;;;1910561;75;21208;-82
2022/10/15 00:33:41;;;;;;;6.87;4.37;;;16.70;99.90;;;;;;1940066;72;22894;-80
2022/10/15 00:36:35;;;;;;;6.72;4.53;;;16.60;99.90;;;;;;1895025;75;21208;-81
2022/10/15 00:39:26;;;;;;;6.75;4.55;;;16.70;99.90;;;;;;1887883;75;21047;-81
2022/10/15 00:42:18;;;;;;;7.37;4.72;;;16.60;99.90;;;;;;1914635;75;21071;-81
2022/10/15 00:47:51;;;;;;;7.10;4.08;;;16.50;99.90;;;;;;1937332;72;22661;-81
2022/10/15 00:50:43;;;;;;;4.80;3.67;;;16.50;99.90;;;;;;1905448;75;21176;-82
2022/10/15 00:53:35;;;;;;;5.58;3.90;;;16.40;99.90;;;;;;1900196;75;21054;-82
2022/10/15 00:56:31;;;;;;;6.33;4.00;;;16.40;99.90;;;;;;1908348;75;21139;-82
2022/10/15 01:02:07;;;;;;;7.03;3.87;;;16.30;99.90;;;;;;1931934;72;22562;-81
2022/10/15 01:07:37;;;;;;;6.03;2.70;;;16.20;99.90;;;;;;1933436;72;22283;-81
2022/10/15 01:13:12;;;;;;;5.55;3.75;;;15.90;99.90;;;;;;1951149;72;22189;-81
2022/10/15 01:16:08;;;;;;;6.62;3.60;;;15.90;99.90;;;;;;1928909;74;21617;-81
2022/10/15 01:19:02;;;;;;;8.93;2.92;;;16.00;99.90;;;;;;1904980;74;21618;-83
2022/10/15 01:21:59;;;;;;;5.12;3.20;;;15.90;99.90;;;;;;1919845;74;21123;-81
2022/10/15 01:25:01;;;;;;;4.40;2.60;;;15.80;99.90;;;;;;1907317;73;21110;-81
2022/10/15 01:27:56;;;;;;;4.55;2.90;;;15.70;99.90;;;;;;1905588;74;21118;-81
2022/10/15 01:30:51;;;;;;;4.75;2.87;;;15.60;99.90;;;;;;1916545;74;21113;-81
2022/10/15 01:33:47;;;;;;;4.20;2.65;;;15.70;99.90;;;;;;1904468;75;21103;-81
2022/10/15 01:36:41;;;;;;;4.70;2.60;;;15.60;99.90;;;;;;1904516;75;21124;-81
2022/10/15 01:39:35;;;;;;;3.55;2.55;;;15.60;99.90;;;;;;1909292;74;21214;-81
2022/10/15 01:42:30;;;;;;;3.30;2.67;;;15.70;99.90;;;;;;1926601;74;21047;-81
2022/10/15 01:45:25;;;;;;;4.95;2.95;;;15.50;99.90;;;;;;1911591;74;21123;-81
2022/10/15 01:48:19;;;;;;;5.67;3.00;;;15.50;99.90;;;;;;1929149;74;21550;-81
2022/10/15 01:51:13;;;;;;;4.55;2.90;;;15.50;99.90;;;;;;1916651;74;21161;-81
2022/10/15 01:54:08;;;;;;;3.50;2.80;;;15.50;99.90;;;;;;1909357;74;21063;-82
2022/10/15 01:57:01;;;;;;;6.83;3.70;;;15.60;99.90;;;;;;1909266;74;21517;-81
2022/10/15 02:02:35;;;;;;;4.65;3.70;;;15.70;99.90;;;;;;1939746;72;22139;-80
2022/10/15 02:08:13;;;;;;;5.42;4.00;;;15.80;99.90;;;;;;1939777;72;22131;-87
2022/10/15 02:11:08;;;;;;;7.53;4.05;;;15.70;99.90;;;;;;1901113;75;21136;-85
2022/10/15 02:14:02;;;;;;;5.53;3.80;;;15.80;99.90;;;;;;1884583;75;21046;-85
2022/10/15 02:19:45;;;;;;;6.28;4.17;;;15.80;99.90;;;;;;1932703;72;22244;-83
2022/10/15 02:22:40;;;;;;;6.35;3.92;;;15.80;99.90;;;;;;1878943;75;21181;-85
2022/10/15 02:28:15;;;;;;;6.62;4.12;;;15.70;99.90;;;;;;1936267;72;22268;-83
2022/10/15 02:33:47;;;;;;;4.83;3.50;;;15.60;99.90;;;;;;1952854;72;22128;-84
2022/10/15 02:39:24;;;;;;;7.58;3.58;;;15.60;99.90;;;;;;1926633;72;22249;-84
2022/10/15 02:47:37;;;;;;;7.78;3.72;;;15.60;99.90;;;;;;1936129;72;22155;-84
2022/10/15 02:53:08;;;;;;;8.40;3.50;;;15.50;99.90;;;;;;1942477;72;22083;-84
2022/10/15 02:56:00;;;;;;;6.42;3.90;;;15.50;99.90;;;;;;1902710;75;21148;-84
2022/10/15 03:01:37;;;;;;;5.87;4.35;;;15.50;99.90;;;;;;1917959;72;28150;-84
2022/10/15 03:04:28;;;;;;;9.48;3.40;;;15.70;99.90;;;;;;1932131;73;21043;-85
2022/10/15 03:15:20;;;;;;;5.58;2.42;;;15.20;99.90;;;;;;1936435;72;22267;-84
2022/10/15 03:18:13;;;;;;;3.85;2.83;;;15.10;99.90;;;;;;1897962;74;21059;-84
2022/10/15 03:21:05;;;;;;;5.47;2.35;;;15.10;99.90;;;;;;1889680;73;21113;-84
2022/10/15 03:23:57;;;;;;;5.40;2.95;;;15.00;99.90;;;;;;1914545;74;21086;-84
2022/10/15 03:26:50;;;;;;;5.20;3.37;;;14.90;99.90;;;;;;1870822;76;21106;-84
2022/10/15 03:29:41;;;;;;;5.85;2.70;;;14.90;99.90;;;;;;1912315;74;21099;-84
2022/10/15 03:32:33;;;;;;;4.20;2.50;;;14.90;99.90;;;;;;1902631;74;21048;-84
2022/10/15 03:35:27;;;;;;;3.80;3.10;;;14.90;99.90;;;;;;1903249;74;21102;-84
2022/10/15 03:38:19;;;;;;;5.95;3.58;;;14.90;99.90;;;;;;1878902;76;21093;-84
2022/10/15 03:41:11;;;;;;;3.85;2.80;;;14.90;99.90;;;;;;1898508;75;21134;-84
2022/10/15 03:44:05;;;;;;;5.33;3.58;;;15.00;99.90;;;;;;1900921;75;21056;-84
2022/10/15 03:46:57;;;;;;;4.78;3.35;;;15.00;99.90;;;;;;1892763;75;21502;-84
2022/10/15 03:49:50;;;;;;;5.67;3.15;;;15.00;99.90;;;;;;1889887;75;21662;-84
2022/10/15 03:52:43;;;;;;;5.42;3.30;;;15.00;99.90;;;;;;1903184;74;21147;-84
2022/10/15 03:55:35;;;;;;;4.80;3.05;;;15.00;99.90;;;;;;1890305;75;21132;-84
2022/10/15 03:58:27;;;;;;;4.67;3.33;;;15.00;99.90;;;;;;1886781;75;21097;-84
2022/10/15 04:04:03;;;;;;;6.33;3.40;;;15.00;99.90;;;;;;1940371;72;22186;-84
2022/10/15 04:06:54;;;;;;;6.55;3.98;;;15.00;99.90;;;;;;1890083;75;21059;-84
2022/10/15 04:09:47;;;;;;;9.03;4.00;;;14.90;99.90;;;;;;1869727;75;21083;-84
2022/10/15 04:12:39;;;;;;;6.12;3.70;;;14.90;99.90;;;;;;1895295;75;21124;-84
2022/10/15 04:18:13;;;;;;;5.00;3.15;;;14.90;99.90;;;;;;1938362;72;22223;-84
2022/10/15 04:21:04;;;;;;;4.10;3.33;;;14.90;99.90;;;;;;1887689;75;21040;-84
2022/10/15 04:23:56;;;;;;;6.10;3.00;;;14.90;99.90;;;;;;1890285;75;21056;-84
2022/10/15 04:29:30;;;;;;;5.08;3.75;;;14.90;99.90;;;;;;1941248;72;22613;-84
2022/10/15 04:32:23;;;;;;;6.62;4.55;;;14.90;99.90;;;;;;1897777;75;21149;-86
2022/10/15 04:37:53;;;;;;;8.43;4.28;;;14.80;99.90;;;;;;1953765;72;22586;-84
2022/10/15 04:40:45;;;;;;;5.90;3.85;;;14.80;99.90;;;;;;1905309;75;21124;-84
2022/10/15 04:43:37;;;;;;;5.83;4.00;;;14.80;99.90;;;;;;1905944;74;21114;-85
2022/10/15 04:49:09;;;;;;;4.42;3.02;;;14.80;99.90;;;;;;1938808;72;22246;-84
2022/10/15 04:54:41;;;;;;;4.90;2.92;;;14.70;99.90;;;;;;1934462;72;22114;-84
2022/10/15 04:57:32;;;;;;;8.00;3.60;;;14.70;99.90;;;;;;1879678;75;21095;-84
2022/10/15 05:00:23;;;;;;;4.85;3.17;;;14.80;99.90;;;;;;1877216;75;21168;-84
2022/10/15 05:09:00;;;;;;;4.40;3.30;;;14.70;99.90;;;;;;1941424;72;22269;-86
2022/10/15 05:11:54;;;;;;;6.30;3.30;;;14.80;99.90;;;;;;1897808;75;21149;-85
2022/10/15 05:14:46;;;;;;;5.08;3.02;;;14.70;99.90;;;;;;1884420;75;21064;-85
2022/10/15 05:17:39;;;;;;;6.08;2.80;;;14.60;99.90;;;;;;1885627;75;21071;-85
2022/10/15 05:23:12;;;;;;;5.20;3.22;;;14.60;99.90;;;;;;1926720;72;22668;-83
2022/10/15 05:26:07;;;;;;;4.47;3.10;;;14.50;99.90;;;;;;1884793;75;21103;-84
2022/10/15 05:31:39;;;;;;;5.20;2.67;;;14.50;99.90;;;;;;1943375;72;22738;-84
2022/10/15 05:34:32;;;;;;;6.00;2.80;;;14.50;99.90;;;;;;1892231;75;21128;-85
2022/10/15 05:37:26;;;;;;;8.30;2.90;;;14.40;99.90;;;;;;1895808;75;21094;-85
2022/10/15 05:42:56;;;;;;;6.05;3.15;;;14.30;99.90;;;;;;1945553;72;22123;-84
2022/10/15 05:48:28;;;;;;;6.65;2.98;;;14.30;99.90;;;;;;1950556;72;22112;-84
2022/10/15 05:55:41;;;;;;;8.83;2.95;;;14.20;99.90;;;;;;2066816;68;22124;-86
2022/10/15 05:58:34;;;;;;;4.28;2.75;;;14.20;99.90;;;;;;2033958;69;21041;-85
2022/10/15 06:01:27;;;;;;;7.30;2.90;;;14.30;99.90;;;;;;2036249;69;21138;-84
2022/10/15 06:04:19;;;;;;;6.67;3.08;;;14.30;99.90;;;;;;2037350;69;21540;-84
2022/10/15 06:07:10;;;;;;;3.58;2.47;;;14.30;99.90;;;;;;2045961;69;21088;-84
2022/10/15 06:12:53;;;;;;;8.68;3.27;;;14.40;99.90;;;;;;1954880;72;22358;-83
2022/10/15 06:18:24;;;;;;;8.95;3.20;;;14.50;99.90;;;;;;1934456;72;22116;-86
2022/10/15 06:21:16;;;;;;;7.30;3.30;;;14.40;99.90;;;;;;1892620;75;21143;-85
2022/10/15 06:24:08;;;;;;;6.92;3.55;;;14.40;99.90;;;;;;1872949;75;21113;-85
2022/10/15 06:27:00;;;;;;;5.35;3.70;;;14.40;99.90;;;;;;1895417;75;21102;-84
2022/10/15 06:33:37;;;;;;;7.40;3.65;;;14.40;99.90;;;;;;1859697;75;21087;-86
2022/10/15 06:39:09;;;;;;;5.67;3.60;;;14.30;99.90;;;;;;1936279;72;22246;-86
2022/10/15 06:42:01;;;;;;;4.65;3.40;;;14.30;99.90;;;;;;1895291;75;21128;-85
2022/10/15 06:44:55;;;;;;;9.58;3.62;;;14.40;99.90;;;;;;1901496;75;21161;-86
2022/10/15 06:47:46;;;;;;;6.53;3.80;;;14.50;99.90;;;;;;1905757;75;21118;-85
2022/10/15 06:53:18;;;;;;;5.00;3.47;;;14.50;99.90;;;;;;1950123;72;22180;-84
2022/10/15 06:58:52;;;;;;;7.25;3.65;;;14.50;99.90;;;;;;1945460;72;22276;-86
2022/10/15 07:01:44;;;;;;;6.22;3.90;;;14.60;99.90;;;;;;1878793;75;21132;-84
2022/10/15 07:04:35;;;;;;;7.37;4.22;;;14.60;99.90;;;;;;1884649;75;21114;-84
2022/10/15 07:07:26;;;;;;;4.75;3.47;;;14.70;99.90;;;;;;1915442;75;21046;-84
2022/10/15 07:10:18;;;;;;;5.62;4.92;;;14.70;99.90;;;;;;1901755;75;21099;-85
2022/10/15 07:15:52;;;;;;;5.85;4.25;;;14.80;99.90;;;;;;1968370;72;22184;-85
2022/10/15 07:18:44;;;;;;;5.12;3.67;;;14.90;99.90;;;;;;1935836;73;21064;-84
2022/10/15 07:24:15;;;;;;;5.72;3.37;;;15.00;99.90;;;;;;1956193;72;22227;-85
2022/10/15 07:27:07;;;;;;;6.85;3.90;;;15.00;99.90;;;;;;1899631;75;21133;-86
2022/10/15 07:32:42;;;;;;;4.67;3.37;;;15.10;99.90;;;;;;1949337;72;22237;-85
2022/10/15 07:38:14;;;;;;;6.20;3.60;;;15.20;99.90;;;;;;1958694;72;22153;-87
2022/10/15 07:41:07;;;;;;;7.78;4.22;;;15.30;99.90;;;;;;1928693;73;21631;-86
2022/10/15 07:44:00;;;;;;;10.98;4.92;;;15.40;99.90;;;;;;1924087;73;21105;-86
2022/10/15 07:46:51;;;;;;;8.35;4.45;;;15.50;99.90;;;;;;1927179;73;21117;-84
2022/10/15 07:49:43;;;;;;;8.48;4.30;;;15.50;99.90;;;;;;1917449;73;21157;-87
2022/10/15 07:52:34;;;;;;;5.08;3.92;;;15.50;99.90;;;;;;1931454;73;21051;-84
2022/10/15 07:55:26;;;;;;;6.62;4.05;;;15.50;99.90;;;;;;1934006;73;21113;-86
2022/10/15 07:58:19;;;;;;;7.53;4.85;;;15.60;99.90;;;;;;1927829;73;21179;-86
2022/10/15 08:01:12;;;;;;;5.65;3.95;;;15.60;99.90;;;;;;1922449;73;21042;-87
2022/10/15 08:04:03;;;;;;;9.88;4.95;;;15.70;99.90;;;;;;1945829;73;21035;-87
2022/10/15 08:06:57;;;;;;;5.33;4.22;;;15.80;99.90;;;;;;1928425;73;21653;-87
2022/10/15 08:09:49;;;;;;;8.80;5.03;;;15.80;99.90;;;;;;1917364;75;21196;-87
2022/10/15 08:12:41;;;;;;;8.35;5.05;;;15.90;99.90;;;;;;1933203;73;21180;-86
2022/10/15 08:18:12;;;;;;;10.63;5.50;;;16.10;99.90;;;;;;1937961;72;22131;-88
2022/10/15 08:21:07;;;;;;;6.45;4.92;;;16.10;99.90;;;;;;1897166;75;21554;-86
2022/10/15 08:23:59;;;;;;;13.10;5.87;;;16.10;99.90;;;;;;1884012;75;21112;-87
2022/10/15 08:26:56;;;;;;;12.18;5.30;;;16.20;99.90;;;;;;1875703;75;21075;-86
2022/10/15 08:29:48;;;;;;;11.78;4.87;;;16.20;99.90;;;;;;1887713;75;21210;-86
2022/10/15 08:32:40;;;;;;;7.78;4.80;;;16.30;99.90;;;;;;1904538;75;21060;-86
2022/10/15 08:35:34;;;;;;;7.65;5.50;;;16.40;99.90;;;;;;1884398;75;21066;-86
2022/10/15 08:38:25;;;;;;;6.35;5.75;;;16.40;99.90;;;;;;1874402;74;21062;-86
2022/10/15 08:41:22;;;;;;;6.78;5.20;;;16.50;99.90;;;;;;1902839;74;21529;-87
2022/10/15 08:44:18;;;;;;;10.23;5.90;;;16.60;99.90;;;;;;1873002;75;21754;-86
2022/10/15 08:49:53;;;;;;;4.25;3.40;;;16.70;99.90;;;;;;1954829;72;22275;-87
2022/10/15 08:52:47;;;;;;;4.87;3.52;;;16.70;99.90;;;;;;1911950;75;21233;-87
2022/10/15 08:58:22;;;;;;;4.47;3.00;;;16.80;99.90;;;;;;1940937;72;22233;-88
2022/10/15 09:04:00;;;;;;;5.30;2.92;;;17.00;99.90;;;;;;1938784;72;22137;-87
2022/10/15 09:06:55;;;;;;;5.70;2.60;;;17.10;99.90;;;;;;1833243;77;21105;-86
2022/10/15 09:09:52;;;;;;;3.95;2.80;;;17.20;99.90;;;;;;1869109;76;21134;-86
2022/10/15 09:15:30;;;;;;;3.05;2.70;;;17.30;99.90;;;;;;1951263;72;22124;-85
2022/10/15 09:18:25;;;;;;;5.12;2.72;;;17.40;99.90;;;;;;1917475;75;21490;-88
2022/10/15 09:21:17;;;;;;;5.55;3.12;;;17.50;99.90;;;;;;1929093;73;21143;-87
2022/10/15 09:24:13;;;;;;;3.90;2.20;;;17.50;99.90;;;;;;1933068;73;21102;-87
2022/10/15 09:27:09;;;;;;;3.65;2.50;;;17.60;99.90;;;;;;1856629;76;21074;-87
2022/10/15 09:30:07;;;;;;;5.45;3.00;;;17.70;99.90;;;;;;1923780;73;21176;-87
2022/10/15 09:35:44;;;;;;;3.45;2.40;;;17.80;99.90;;;;;;1952160;72;22701;-86
2022/10/15 09:38:39;;;;;;;5.42;3.33;;;17.80;99.90;;;;;;1908283;74;21528;-87
2022/10/15 09:41:36;;;;;;;5.90;2.35;;;17.90;99.90;;;;;;1917155;74;21169;-86
2022/10/15 09:47:24;;;;;;;5.00;2.25;;;18.00;99.90;;;;;;1949544;72;22172;-87
2022/10/15 09:50:17;;;;;;;4.45;2.30;;;18.10;99.90;;;;;;1919901;74;21148;-86
2022/10/15 09:53:15;;;;;;;4.92;2.40;;;18.20;99.90;;;;;;1904883;74;21050;-86
2022/10/15 09:56:10;;;;;;;3.20;2.30;;;18.30;99.90;;;;;;1928687;74;21054;-86
2022/10/15 09:59:04;;;;;;;5.87;2.60;;;18.30;99.90;;;;;;1904961;75;21050;-87
2022/10/15 10:02:02;;;;;;;6.78;2.10;;;18.40;99.90;;;;;;1910660;73;21113;-87
2022/10/15 10:04:54;;;;;;;3.77;2.50;;;18.50;99.90;;;;;;1910197;74;21824;-87
2022/10/15 10:07:46;;;;;;;3.35;2.10;;;18.60;99.90;;;;;;1907161;74;21738;-87
2022/10/15 10:10:39;;;;;;;4.62;2.17;;;18.60;99.90;;;;;;1913890;74;21718;-87
2022/10/15 10:13:35;;;;;;;3.52;2.52;;;18.70;99.90;;;;;;1906538;74;21068;-87
2022/10/15 10:16:32;;;;;;;3.50;2.40;;;18.70;99.90;;;;;;1920472;74;21151;-87
2022/10/15 10:19:24;;;;;;;3.72;2.47;;;18.70;99.90;;;;;;1905035;75;21829;-86
2022/10/15 10:25:00;;;;;;;6.28;3.17;;;18.90;99.90;;;;;;1943870;72;22135;-88
2022/10/15 10:30:34;;;;;;;2.98;1.82;;;19.00;99.90;;;;;;1947951;72;22119;-86
2022/10/15 10:33:29;;;;;;;6.00;2.67;;;19.10;99.90;;;;;;1922570;73;21109;-86
2022/10/15 10:36:27;;;;;;;3.62;1.60;;;19.10;99.90;;;;;;1917402;75;21109;-88
2022/10/15 10:39:26;;;;;;;5.10;1.82;;;19.10;99.90;;;;;;1938434;73;21047;-87
2022/10/15 10:42:29;;;;;;;2.95;1.57;;;19.20;99.90;;;;;;1933672;73;21538;-87
2022/10/15 10:48:17;;;;;;;2.92;1.77;;;19.40;99.90;;;;;;1941508;72;22133;-86
2022/10/15 10:51:12;;;;;;;2.67;1.30;;;19.40;99.90;;;;;;1902326;75;21062;-86
2022/10/15 10:54:07;;;;;;;2.83;1.60;;;19.50;99.90;;;;;;1900660;75;21138;-87
2022/10/15 10:57:01;;;;;;;3.02;1.60;;;19.60;99.90;;;;;;1901043;75;21141;-87
2022/10/15 10:59:56;;;;;;;3.85;1.32;;;19.70;99.90;;;;;;1905672;75;21110;-87
2022/10/15 11:02:48;;;;;;;2.15;1.57;;;19.70;99.90;;;;;;1901906;75;21200;-86
2022/10/15 11:08:23;;;;;;;2.50;1.22;;;19.90;99.90;;;;;;2014821;69;22225;-86
2022/10/15 11:11:21;;;;;;;1.75;1.37;;;20.00;99.90;;;;;;1966556;72;21597;-87
2022/10/15 11:14:17;;;;;;;1.67;1.50;;;20.00;99.90;;;;;;1954295;72;21109;-87
2022/10/15 11:17:14;;;;;;;1.70;1.40;;;20.10;99.90;;;;;;1967842;72;21035;-86
2022/10/15 11:20:08;;;;;;;2.02;1.15;;;20.10;99.90;;;;;;1952322;72;21127;-86
2022/10/15 11:23:10;;;;;;;1.62;1.30;;;20.20;99.90;;;;;;1958630;72;21098;-86
2022/10/15 11:26:04;;;;;;;1.32;1.10;;;20.20;99.90;;;;;;1962747;72;21556;-86
2022/10/15 11:29:00;;;;;;;1.70;1.25;;;20.30;99.90;;;;;;1987184;72;21068;-86
2022/10/15 11:34:38;;;;;;;1.27;1.00;;;20.40;99.90;;;;;;1924790;72;22198;-86
2022/10/15 11:37:37;;;;;;;1.35;1.02;;;20.50;99.90;;;;;;1904058;75;21070;-86
2022/10/15 11:40:33;;;;;;;2.25;1.30;;;20.60;99.90;;;;;;1899191;73;21188;-86
2022/10/15 11:43:30;;;;;;;3.60;1.10;;;20.70;99.90;;;;;;1893008;73;21098;-86
2022/10/15 11:49:15;;;;;;;2.70;1.20;;;20.80;99.90;;;;;;1947569;72;22272;-86
2022/10/15 11:55:03;;;;;;;1.72;1.20;;;20.90;99.90;;;;;;1942216;72;22142;-88
2022/10/15 11:57:58;;;;;;;2.70;1.20;;;21.00;99.90;;;;;;1876538;75;21148;-87
2022/10/15 12:00:55;;;;;;;1.52;0.95;;;21.00;99.90;;;;;;1875296;75;21051;-87
2022/10/15 12:03:51;;;;;;;1.25;0.88;;;21.00;99.90;;;;;;1885767;75;21059;-87
2022/10/15 12:06:46;;;;;;;3.05;1.10;;;21.10;99.90;;;;;;1878043;75;21732;-87
2022/10/15 12:09:41;;;;;;;2.12;0.95;;;21.10;99.90;;;;;;1876469;75;21194;-87
2022/10/15 12:12:38;;;;;;;1.52;1.20;;;21.20;99.90;;;;;;1882734;75;21087;-86
2022/10/15 12:15:32;;;;;;;2.35;1.15;;;21.20;99.90;;;;;;1873100;76;21368;-86
2022/10/15 12:18:27;;;;;;;1.35;1.00;;;21.20;99.90;;;;;;1872330;75;21157;-87
2022/10/15 12:24:55;;;;;;;4.40;1.10;;;21.40;99.90;;;;;;1938181;72;22204;-86
2022/10/15 12:27:45;;;;;;;;;;;21.50;99.90;;;;;;1875339;75;21180;-86
2022/10/15 12:30:37;;;;;;;2.42;1.07;;;21.60;99.90;;;;;;1900098;75;20159;-87
2022/10/15 12:33:36;;;;;;;1.77;0.80;;;21.70;99.90;;;;;;1885437;75;21103;-87
2022/10/15 12:36:30;;;;;;;1.40;1.10;;;21.80;99.90;;;;;;1884780;75;21137;-87
2022/10/15 12:39:25;;;;;;;2.40;1.32;;;21.90;99.90;;;;;;1893655;75;21068;-86
2022/10/15 12:42:28;;;;;;;2.92;1.20;;;21.90;99.90;;;;;;1904963;75;21130;-86
2022/10/15 12:45:22;;;;;;;2.12;0.80;;;21.90;99.90;;;;;;1876414;75;21101;-86
2022/10/15 12:48:24;;;;;;;1.60;1.10;;;22.00;99.90;;;;;;1898935;75;21120;-87
2022/10/15 12:51:45;;;;;;;3.90;1.00;;;22.00;99.90;;;;;;1886985;75;21373;-88
2022/10/15 12:54:42;;;;;;;2.50;1.07;;;22.10;99.90;;;;;;1890303;75;21052;-87
2022/10/15 12:57:56;;;;;;;2.92;0.72;;;22.20;99.90;;;;;;1885046;75;21143;-87
2022/10/15 13:03:34;;;;;;;5.03;1.10;;;22.30;99.90;;;;;;1924797;72;22275;-86
2022/10/15 13:06:39;;;;;;;2.02;0.70;;;22.30;99.90;;;;;;1930657;73;21522;-86
2022/10/15 13:09:31;;;;;;;0.60;0.60;;;22.50;99.90;;;;;;1917571;73;21196;-86
2022/10/15 13:12:25;;;;;;;2.35;0.60;;;22.60;99.90;;;;;;1918728;73;21168;-86
2022/10/15 13:15:20;;;;;;;0.88;0.50;;;22.60;99.90;;;;;;1924902;73;21152;-86
2022/10/15 13:18:14;;;;;;;0.93;0.50;;;22.70;99.90;;;;;;1925087;73;21054;-87
2022/10/15 13:21:06;;;;;;;1.32;0.40;;;22.80;99.90;;;;;;1940201;73;21050;-87
2022/10/15 13:23:59;;;;;;;1.47;0.37;;;22.90;99.90;;;;;;1941364;73;21121;-87
2022/10/15 13:26:53;;;;;;;1.82;0.60;;;23.00;99.90;;;;;;1936984;72;21107;-87
2022/10/15 13:29:56;;;;;;;0.60;0.47;;;23.00;99.90;;;;;;1939797;73;21133;-87
2022/10/15 13:32:50;;;;;;;4.33;0.62;;;23.00;99.90;;;;;;1922896;73;21183;-87
2022/10/15 13:35:42;;;;;;;1.15;0.60;;;23.10;99.90;;;;;;1930885;73;21185;-87
2022/10/15 13:41:27;;;;;;;0.82;0.50;;;23.20;99.90;;;;;;1928783;72;22188;-88
2022/10/15 13:44:24;;;;;;;1.77;0.82;;;23.30;99.90;;;;;;1926699;73;21097;-88
2022/10/15 13:47:30;;;;;;;2.98;0.80;;;23.30;99.90;;;;;;1895481;75;21158;-88
2022/10/15 13:53:05;;;;;;;3.00;0.90;;;23.20;99.90;;;;;;1951262;72;22294;-87
2022/10/15 13:58:38;;;;;;;0.95;0.60;;;23.30;99.90;;;;;;1932956;72;22902;-86
2022/10/15 14:04:17;;;;;;;0.50;0.30;;;23.50;99.90;;;;;;1954237;72;22166;-87
2022/10/15 14:07:25;;;;;;;0.82;0.65;;;23.50;99.90;;;;;;1898906;75;21211;-86
2022/10/15 14:10:18;;;;;;;0.28;0.25;;;23.60;99.90;;;;;;1887793;75;21052;-86
2022/10/15 14:13:11;;;;;;;2.37;0.53;;;23.60;99.90;;;;;;1894994;75;21114;-86
2022/10/15 14:16:16;;;;;;;0.33;0.30;;;23.70;99.90;;;;;;1895288;75;21516;-86
2022/10/15 14:21:53;;;;;;;0.62;0.33;;;25.70;99.90;;;;;;1951529;72;22240;-87
2022/10/15 14:24:46;;;;;;;0.85;0.50;;;25.10;99.90;;;;;;1911815;74;21051;-86
2022/10/15 14:27:39;;;;;;;2.58;0.42;;;24.40;99.90;;;;;;1924973;74;21082;-87
2022/10/15 14:30:32;;;;;;;0.42;0.30;;;24.10;99.90;;;;;;1905079;75;21113;-87
2022/10/15 14:33:45;;;;;;;1.02;0.47;;;24.00;99.90;;;;;;1908647;74;21120;-87
2022/10/15 14:36:43;;;;;;;2.45;0.50;;;23.90;99.90;;;;;;1904765;74;21084;-88
2022/10/15 14:39:38;;;;;;;0.68;0.40;;;23.90;99.90;;;;;;1904932;74;21103;-88
2022/10/15 14:42:32;;;;;;;1.15;0.40;;;23.90;99.90;;;;;;1914041;74;21128;-87
2022/10/15 14:45:28;;;;;;;1.60;0.37;;;23.80;99.90;;;;;;1905023;75;21558;-87
2022/10/15 14:48:23;;;;;;;2.85;0.70;;;23.80;99.90;;;;;;1906913;74;21052;-87
2022/10/15 14:51:19;;;;;;;1.00;0.40;;;23.80;99.90;;;;;;1907226;74;21043;-87
2022/10/15 14:54:17;;;;;;;0.55;0.37;;;23.80;99.90;;;;;;1905479;75;21267;-87
2022/10/15 14:57:18;;;;;;;2.40;0.30;;;23.80;99.90;;;;;;1910840;74;21566;-87
2022/10/15 15:00:16;;;;;;;0.55;0.50;;;23.80;99.90;;;;;;1888741;75;21667;-87
2022/10/15 15:03:13;;;;;;;1.75;0.40;;;23.90;99.90;;;;;;1904779;75;21521;-87
2022/10/15 15:06:05;;;;;;;0.78;0.40;;;23.90;99.90;;;;;;1909975;74;21118;-87
2022/10/15 15:08:57;;;;;;;1.67;0.40;;;23.90;99.90;;;;;;1917676;74;21506;-86
2022/10/15 15:11:50;;;;;;;1.62;0.50;;;23.90;99.90;;;;;;1908272;74;21102;-86
2022/10/15 15:14:43;;;;;;;0.60;0.45;;;23.90;99.90;;;;;;1921877;74;21098;-86
2022/10/15 15:17:36;;;;;;;2.55;0.40;;;24.00;99.90;;;;;;1905206;75;21288;-86
2022/10/15 15:20:30;;;;;;;0.82;0.42;;;24.00;99.90;;;;;;1908402;74;21171;-87
2022/10/15 15:23:24;;;;;;;2.67;0.60;;;24.20;99.90;;;;;;1921229;74;21051;-86
2022/10/15 15:26:15;;;;;;;2.10;0.70;;;24.30;99.90;;;;;;1912665;74;21086;-87
2022/10/15 15:29:13;;;;;;;2.05;0.62;;;24.50;99.90;;;;;;1911602;74;21106;-87
2022/10/15 15:32:05;;;;;;;0.98;0.40;;;25.20;99.90;;;;;;1917352;74;21084;-87
2022/10/15 15:34:58;;;;;;;2.15;0.50;;;26.70;99.90;;;;;;1911797;74;21088;-87
2022/10/15 15:37:49;;;;;;;2.08;0.50;;;28.10;99.90;;;;;;1915035;74;21116;-87
2022/10/15 15:43:25;;;;;;;2.12;0.60;;;30.70;99.90;;;;;;1946936;72;22549;-88
2022/10/15 15:48:57;;;;;;;1.80;0.50;;;31.10;99.90;;;;;;1957258;72;22146;-88
2022/10/15 15:54:27;;;;;;;2.10;0.70;;;30.50;99.90;;;;;;1946133;72;22094;-86
2022/10/15 15:57:19;;;;;;;1.35;0.65;;;30.30;99.90;;;;;;1927217;74;21187;-88
2022/10/15 16:00:15;;;;;;;2.25;0.70;;;29.70;99.90;;;;;;1908959;74;21129;-87
2022/10/15 16:03:13;;;;;;;1.47;0.60;;;28.70;99.90;;;;;;1918706;74;21169;-86
2022/10/15 16:08:53;;;;;;;3.10;1.10;;;26.20;99.90;;;;;;1934450;72;22135;-86
2022/10/15 16:11:45;;;;;;;1.57;0.55;;;25.40;99.90;;;;;;1894874;75;21117;-89
2022/10/15 16:14:36;;;;;;;1.52;0.60;;;24.90;99.90;;;;;;1902090;75;21588;-86
2022/10/15 16:20:13;;;;;;;3.45;1.00;;;24.10;99.90;;;;;;1928473;74;22256;-87
2022/10/15 16:23:05;;;;;;;0.85;0.57;;;23.90;99.90;;;;;;1923559;73;21106;-86
2022/10/15 16:28:42;;;;;;;3.20;0.57;;;23.50;99.90;;;;;;1952861;72;22138;-86
2022/10/15 16:31:35;;;;;;;0.88;0.53;;;23.30;99.90;;;;;;1915922;74;21464;-87
2022/10/15 16:34:27;;;;;;;2.08;0.90;;;23.10;99.90;;;;;;1922647;74;21167;-89
2022/10/15 16:37:19;;;;;;;2.10;0.90;;;23.00;99.90;;;;;;1918487;74;21104;-87
2022/10/15 16:42:49;;;;;;;1.42;1.20;;;22.60;99.90;;;;;;1940400;72;22125;-87
2022/10/15 16:45:41;;;;;;;1.60;0.85;;;22.40;99.90;;;;;;1875099;75;21068;-87
2022/10/15 16:48:34;;;;;;;1.90;0.80;;;22.20;99.90;;;;;;1873270;75;21148;-86
2022/10/15 16:51:29;;;;;;;3.85;0.80;;;21.90;99.90;;;;;;1899037;75;21089;-87
2022/10/15 16:54:22;;;;;;;2.98;0.90;;;21.70;99.90;;;;;;1891961;75;21150;-87
2022/10/15 17:05:32;;;;;;;3.62;1.00;;;21.30;99.90;;;;;;1941097;72;22275;-85
2022/10/15 17:08:24;;;;;;;5.28;1.10;;;21.00;99.90;;;;;;1897655;74;21068;-86
2022/10/15 17:11:20;;;;;;;1.87;1.05;;;21.00;99.90;;;;;;1905307;74;21205;-86
2022/10/15 17:14:13;;;;;;;3.35;1.30;;;20.80;99.90;;;;;;1901359;74;21551;-86
2022/10/15 17:19:45;;;;;;;3.72;1.15;;;20.70;99.90;;;;;;1937881;72;22128;-86
2022/10/15 17:26:40;;;;;;;2.55;1.10;;;20.70;99.90;;;;;;1887627;75;21087;-86
2022/10/15 17:29:32;;;;;;;3.95;1.50;;;20.50;99.90;;;;;;1843755;76;21158;-87
2022/10/15 17:32:24;;;;;;;2.72;1.20;;;20.40;99.90;;;;;;1851449;76;21145;-87
2022/10/15 17:37:58;;;;;;;5.45;1.65;;;20.20;99.90;;;;;;1945848;72;22178;-86
2022/10/15 17:40:50;;;;;;;1.95;1.40;;;20.10;99.90;;;;;;1890269;75;21240;-86
2022/10/15 17:43:41;;;;;;;2.02;1.40;;;19.90;99.90;;;;;;1890282;75;21195;-86
2022/10/15 17:49:13;;;;;;;4.58;1.60;;;19.70;99.90;;;;;;1933204;72;22616;-86
2022/10/15 17:52:04;;;;;;;2.77;1.77;;;19.60;99.90;;;;;;1900229;75;21152;-86
2022/10/15 17:54:56;;;;;;;4.28;2.70;;;19.70;99.90;;;;;;1892805;75;21055;-86
2022/10/15 17:57:48;;;;;;;3.58;2.72;;;19.60;99.90;;;;;;1903212;75;21108;-86
2022/10/15 18:00:40;;;;;;;4.17;2.60;;;19.60;99.90;;;;;;1894762;75;21049;-89
2022/10/15 18:03:32;;;;;;;4.25;2.35;;;19.50;99.90;;;;;;1899005;75;21051;-87
2022/10/15 18:06:25;;;;;;;7.20;2.62;;;19.50;99.90;;;;;;1898781;75;21102;-86
2022/10/15 18:09:17;;;;;;;5.28;1.90;;;19.50;99.90;;;;;;1897102;75;21196;-87
2022/10/15 18:12:08;;;;;;;2.55;1.40;;;19.50;99.90;;;;;;1894995;75;21087;-88
2022/10/15 18:15:01;;;;;;;4.95;1.98;;;19.40;99.90;;;;;;1893783;75;21156;-87
2022/10/15 18:17:56;;;;;;;3.45;1.60;;;19.40;99.90;;;;;;1880856;75;21151;-87
2022/10/15 18:20:47;;;;;;;3.77;2.00;;;19.30;99.90;;;;;;1897117;75;21108;-87
2022/10/15 18:23:39;;;;;;;3.85;2.22;;;19.30;99.90;;;;;;1904181;75;21059;-86
2022/10/15 18:26:32;;;;;;;4.45;1.87;;;19.20;99.90;;;;;;1886296;75;21115;-87
2022/10/15 18:29:24;;;;;;;2.95;1.80;;;19.20;99.90;;;;;;1901276;75;21132;-88
2022/10/15 18:34:59;;;;;;;3.37;1.80;;;19.10;99.90;;;;;;1968318;72;22677;-86
2022/10/15 18:37:51;;;;;;;4.25;1.75;;;19.10;99.90;;;;;;1917417;73;21191;-88
2022/10/15 18:40:43;;;;;;;2.80;1.85;;;19.10;99.90;;;;;;1922426;73;21502;-87
2022/10/15 18:43:35;;;;;;;2.75;1.80;;;19.10;99.90;;;;;;1917771;73;21082;-87